sensor_id;sensor_type;location;lat;lon;timestamp;temperature;humidity
7445;DHT22;3764;48.126;11.594;2023-03-08T00:00:44;5.10;99.90
7445;DHT22;3764;48.126;11.594;2023-03-08T00:03:12;5.10;99.90
7445;DHT22;3764;48.126;11.594;2023-03-08T00:05:41;5.00;99.90
7445;DHT22;3764;48.126;11.594;2023-03-08T00:08:08;5.00;99.90
7445;DHT22;3764;48.126;11.594;2023-03-08T00:10:36;5.00;99.90
7445;DHT22;3764;48.126;11.594;2023-03-08T00:13:03;5.00;99.90
7445;DHT22;3764;48.126;11.594;2023-03-08T00:15:30;5.00;99.90
7445;DHT22;3764;48.126;11.594;2023-03-08T00:17:58;5.00;99.90
7445;DHT22;3764;48.126;11.594;2023-03-08T00:20:25;5.00;99.90
7445;DHT22;3764;48.126;11.594;2023-03-08T00:22:53;5.00;99.90
7445;DHT22;3764;48.126;11.594;2023-03-08T00:25:20;5.00;99.90
7445;DHT22;3764;48.126;11.594;2023-03-08T00:27:48;5.00;99.90
7445;DHT22;3764;48.126;11.594;2023-03-08T00:30:15;5.00;99.90
7445;DHT22;3764;48.126;11.594;2023-03-08T00:32:42;4.90;99.90
7445;DHT22;3764;48.126;11.594;2023-03-08T00:35:09;4.90;99.90
7445;DHT22;3764;48.126;11.594;2023-03-08T00:37:36;4.90;99.90
7445;DHT22;3764;48.126;11.594;2023-03-08T00:40:07;4.90;99.90
7445;DHT22;3764;48.126;11.594;2023-03-08T00:42:34;4.80;99.90
7445;DHT22;3764;48.126;11.594;2023-03-08T00:45:01;4.80;99.90
7445;DHT22;3764;48.126;11.594;2023-03-08T00:47:28;4.80;99.90
7445;DHT22;3764;48.126;11.594;2023-03-08T00:49:56;4.80;99.90
7445;DHT22;3764;48.126;11.594;2023-03-08T00:52:23;4.80;99.90
7445;DHT22;3764;48.126;11.594;2023-03-08T00:54:50;4.80;99.90
7445;DHT22;3764;48.126;11.594;2023-03-08T00:57:19;4.80;99.90
7445;DHT22;3764;48.126;11.594;2023-03-08T00:59:46;4.70;99.90
7445;DHT22;3764;48.126;11.594;2023-03-08T01:02:13;4.70;99.90
7445;DHT22;3764;48.126;11.594;2023-03-08T01:04:40;4.70;99.90
7445;DHT22;3764;48.126;11.594;2023-03-08T01:07:07;4.80;99.90
7445;DHT22;3764;48.126;11.594;2023-03-08T01:09:35;4.80;99.90
7445;DHT22;3764;48.126;11.594;2023-03-08T01:12:02;4.80;99.90
7445;DHT22;3764;48.126;11.594;2023-03-08T01:14:30;4.70;99.90
7445;DHT22;3764;48.126;11.594;2023-03-08T01:16:57;4.70;99.90
7445;DHT22;3764;48.126;11.594;2023-03-08T01:19:24;4.70;99.90
7445;DHT22;3764;48.126;11.594;2023-03-08T01:21:51;4.70;99.90
7445;DHT22;3764;48.126;11.594;2023-03-08T01:24:18;4.70;99.90
7445;DHT22;3764;48.126;11.594;2023-03-08T01:26:46;4.70;99.90
7445;DHT22;3764;48.126;11.594;2023-03-08T01:29:13;4.70;99.90
7445;DHT22;3764;48.126;11.594;2023-03-08T01:31:42;4.70;99.90
7445;DHT22;3764;48.126;11.594;2023-03-08T01:34:09;4.70;99.90
7445;DHT22;3764;48.126;11.594;2023-03-08T01:36:36;4.70;99.90
7445;DHT22;3764;48.126;11.594;2023-03-08T01:39:03;4.70;99.90
7445;DHT22;3764;48.126;11.594;2023-03-08T01:41:31;4.70;99.90
7445;DHT22;3764;48.126;11.594;2023-03-08T01:43:58;4.60;99.90
7445;DHT22;3764;48.126;11.594;2023-03-08T01:46:27;4.60;99.90
7445;DHT22;3764;48.126;11.594;2023-03-08T01:49:00;4.60;99.90
7445;DHT22;3764;48.126;11.594;2023-03-08T01:51:33;4.60;99.90
7445;DHT22;3764;48.126;11.594;2023-03-08T01:54:06;4.60;99.90
7445;DHT22;3764;48.126;11.594;2023-03-08T01:56:35;4.60;99.90
7445;DHT22;3764;48.126;11.594;2023-03-08T01:59:03;4.60;99.90
7445;DHT22;3764;48.126;11.594;2023-03-08T02:01:32;4.60;99.90
7445;DHT22;3764;48.126;11.594;2023-03-08T02:04:01;4.50;99.90
7445;DHT22;3764;48.126;11.594;2023-03-08T02:06:28;4.50;99.90
7445;DHT22;3764;48.126;11.594;2023-03-08T02:08:57;4.50;99.90
7445;DHT22;3764;48.126;11.594;2023-03-08T02:11:28;4.50;99.90
7445;DHT22;3764;48.126;11.594;2023-03-08T02:13:56;4.40;99.90
7445;DHT22;3764;48.126;11.594;2023-03-08T02:16:23;4.40;99.90
7445;DHT22;3764;48.126;11.594;2023-03-08T02:18:55;4.30;99.90
7445;DHT22;3764;48.126;11.594;2023-03-08T02:21:25;4.40;99.90
7445;DHT22;3764;48.126;11.594;2023-03-08T02:23:54;4.40;99.90
7445;DHT22;3764;48.126;11.594;2023-03-08T02:26:21;4.20;99.90
7445;DHT22;3764;48.126;11.594;2023-03-08T02:28:48;4.10;99.90
7445;DHT22;3764;48.126;11.594;2023-03-08T02:31:15;4.00;99.90
7445;DHT22;3764;48.126;11.594;2023-03-08T02:33:42;3.90;99.90
7445;DHT22;3764;48.126;11.594;2023-03-08T02:36:10;3.90;99.90
7445;DHT22;3764;48.126;11.594;2023-03-08T02:38:37;3.90;99.90
7445;DHT22;3764;48.126;11.594;2023-03-08T02:41:05;4.00;99.90
7445;DHT22;3764;48.126;11.594;2023-03-08T02:43:33;4.00;99.90
7445;DHT22;3764;48.126;11.594;2023-03-08T02:46:00;4.10;99.90
7445;DHT22;3764;48.126;11.594;2023-03-08T02:48:27;4.00;99.90
7445;DHT22;3764;48.126;11.594;2023-03-08T02:50:54;4.00;99.90
7445;DHT22;3764;48.126;11.594;2023-03-08T02:53:21;4.10;99.90
7445;DHT22;3764;48.126;11.594;2023-03-08T02:55:48;4.10;99.90
7445;DHT22;3764;48.126;11.594;2023-03-08T02:58:16;4.10;99.90
7445;DHT22;3764;48.126;11.594;2023-03-08T03:00:44;4.10;99.90
7445;DHT22;3764;48.126;11.594;2023-03-08T03:03:11;4.10;99.90
7445;DHT22;3764;48.126;11.594;2023-03-08T03:05:40;4.10;99.90
7445;DHT22;3764;48.126;11.594;2023-03-08T03:08:09;4.00;99.90
7445;DHT22;3764;48.126;11.594;2023-03-08T03:10:36;4.00;99.90
7445;DHT22;3764;48.126;11.594;2023-03-08T03:13:04;4.00;99.90
7445;DHT22;3764;48.126;11.594;2023-03-08T03:15:36;4.00;99.90
7445;DHT22;3764;48.126;11.594;2023-03-08T03:18:03;3.90;99.90
7445;DHT22;3764;48.126;11.594;2023-03-08T03:20:31;3.90;99.90
7445;DHT22;3764;48.126;11.594;2023-03-08T03:22:58;3.90;99.90
7445;DHT22;3764;48.126;11.594;2023-03-08T03:25:26;3.90;99.90
7445;DHT22;3764;48.126;11.594;2023-03-08T03:27:53;3.90;99.90
7445;DHT22;3764;48.126;11.594;2023-03-08T03:30:21;3.80;99.90
7445;DHT22;3764;48.126;11.594;2023-03-08T03:32:49;3.80;99.90
7445;DHT22;3764;48.126;11.594;2023-03-08T03:35:17;3.70;99.90
7445;DHT22;3764;48.126;11.594;2023-03-08T03:37:44;3.70;99.90
7445;DHT22;3764;48.126;11.594;2023-03-08T03:40:12;3.70;99.90
7445;DHT22;3764;48.126;11.594;2023-03-08T03:42:39;3.80;99.90
7445;DHT22;3764;48.126;11.594;2023-03-08T03:45:07;3.80;99.90
7445;DHT22;3764;48.126;11.594;2023-03-08T03:47:34;3.90;99.90
7445;DHT22;3764;48.126;11.594;2023-03-08T03:50:03;3.80;99.90
7445;DHT22;3764;48.126;11.594;2023-03-08T03:52:30;3.80;99.90
7445;DHT22;3764;48.126;11.594;2023-03-08T03:54:57;3.80;99.90
7445;DHT22;3764;48.126;11.594;2023-03-08T03:57:24;3.80;99.90
7445;DHT22;3764;48.126;11.594;2023-03-08T03:59:51;3.80;99.90
7445;DHT22;3764;48.126;11.594;2023-03-08T04:02:19;3.90;99.90
7445;DHT22;3764;48.126;11.594;2023-03-08T04:04:48;3.90;99.90
7445;DHT22;3764;48.126;11.594;2023-03-08T04:07:17;4.00;99.90
7445;DHT22;3764;48.126;11.594;2023-03-08T04:09:44;3.90;99.90
7445;DHT22;3764;48.126;11.594;2023-03-08T04:12:12;3.90;99.90
7445;DHT22;3764;48.126;11.594;2023-03-08T04:14:39;3.90;99.90
7445;DHT22;3764;48.126;11.594;2023-03-08T04:17:07;3.80;99.90
7445;DHT22;3764;48.126;11.594;2023-03-08T04:19:34;3.70;99.90
7445;DHT22;3764;48.126;11.594;2023-03-08T04:22:01;3.60;99.90
7445;DHT22;3764;48.126;11.594;2023-03-08T04:24:30;3.60;99.90
7445;DHT22;3764;48.126;11.594;2023-03-08T04:26:57;3.60;99.90
7445;DHT22;3764;48.126;11.594;2023-03-08T04:29:24;3.50;99.90
7445;DHT22;3764;48.126;11.594;2023-03-08T04:31:51;3.50;99.90
7445;DHT22;3764;48.126;11.594;2023-03-08T04:34:20;3.40;99.90
7445;DHT22;3764;48.126;11.594;2023-03-08T04:36:47;3.30;99.90
7445;DHT22;3764;48.126;11.594;2023-03-08T04:39:14;3.30;99.90
7445;DHT22;3764;48.126;11.594;2023-03-08T04:41:43;3.20;99.90
7445;DHT22;3764;48.126;11.594;2023-03-08T04:44:10;3.20;99.90
7445;DHT22;3764;48.126;11.594;2023-03-08T04:46:37;3.20;99.90
7445;DHT22;3764;48.126;11.594;2023-03-08T04:49:04;3.20;99.90
7445;DHT22;3764;48.126;11.594;2023-03-08T04:51:31;3.20;99.90
7445;DHT22;3764;48.126;11.594;2023-03-08T04:53:58;3.20;99.90
7445;DHT22;3764;48.126;11.594;2023-03-08T04:56:25;3.20;99.90
7445;DHT22;3764;48.126;11.594;2023-03-08T04:58:54;3.20;99.90
7445;DHT22;3764;48.126;11.594;2023-03-08T05:01:22;3.20;99.90
7445;DHT22;3764;48.126;11.594;2023-03-08T05:03:50;3.20;99.90
7445;DHT22;3764;48.126;11.594;2023-03-08T05:06:18;3.10;99.90
7445;DHT22;3764;48.126;11.594;2023-03-08T05:08:46;3.10;99.90
7445;DHT22;3764;48.126;11.594;2023-03-08T05:11:17;3.10;99.90
7445;DHT22;3764;48.126;11.594;2023-03-08T05:13:44;3.00;99.90
7445;DHT22;3764;48.126;11.594;2023-03-08T05:16:13;3.00;99.90
7445;DHT22;3764;48.126;11.594;2023-03-08T05:18:40;2.90;99.90
7445;DHT22;3764;48.126;11.594;2023-03-08T05:21:10;2.90;99.90
7445;DHT22;3764;48.126;11.594;2023-03-08T05:23:38;2.80;99.90
7445;DHT22;3764;48.126;11.594;2023-03-08T05:26:06;2.90;99.90
7445;DHT22;3764;48.126;11.594;2023-03-08T05:28:34;2.90;99.90
7445;DHT22;3764;48.126;11.594;2023-03-08T05:31:03;2.90;99.90
7445;DHT22;3764;48.126;11.594;2023-03-08T05:33:33;2.90;99.90
7445;DHT22;3764;48.126;11.594;2023-03-08T05:36:00;2.90;99.90
7445;DHT22;3764;48.126;11.594;2023-03-08T05:38:27;2.80;99.90
7445;DHT22;3764;48.126;11.594;2023-03-08T05:40:59;2.80;99.90
7445;DHT22;3764;48.126;11.594;2023-03-08T05:43:26;2.80;99.90
7445;DHT22;3764;48.126;11.594;2023-03-08T05:45:54;2.80;99.90
7445;DHT22;3764;48.126;11.594;2023-03-08T05:48:22;2.80;99.90
7445;DHT22;3764;48.126;11.594;2023-03-08T05:50:51;2.80;99.90
7445;DHT22;3764;48.126;11.594;2023-03-08T05:53:18;2.80;99.90
7445;DHT22;3764;48.126;11.594;2023-03-08T05:55:46;2.80;99.90
7445;DHT22;3764;48.126;11.594;2023-03-08T05:58:13;2.80;99.90
7445;DHT22;3764;48.126;11.594;2023-03-08T06:00:40;2.80;99.90
7445;DHT22;3764;48.126;11.594;2023-03-08T06:03:07;2.80;99.90
7445;DHT22;3764;48.126;11.594;2023-03-08T06:05:35;2.70;99.90
7445;DHT22;3764;48.126;11.594;2023-03-08T06:08:03;2.70;99.90
7445;DHT22;3764;48.126;11.594;2023-03-08T06:10:31;2.70;99.90
7445;DHT22;3764;48.126;11.594;2023-03-08T06:12:58;2.70;99.90
7445;DHT22;3764;48.126;11.594;2023-03-08T06:15:25;2.70;99.90
7445;DHT22;3764;48.126;11.594;2023-03-08T06:17:52;2.70;99.90
7445;DHT22;3764;48.126;11.594;2023-03-08T06:20:20;2.70;99.90
7445;DHT22;3764;48.126;11.594;2023-03-08T06:22:47;2.70;99.90
7445;DHT22;3764;48.126;11.594;2023-03-08T06:25:15;2.70;99.90
7445;DHT22;3764;48.126;11.594;2023-03-08T06:27:42;3.30;99.90
7445;DHT22;3764;48.126;11.594;2023-03-08T06:30:10;3.50;99.90
7445;DHT22;3764;48.126;11.594;2023-03-08T06:32:38;3.40;99.90
7445;DHT22;3764;48.126;11.594;2023-03-08T06:35:05;3.30;99.90
7445;DHT22;3764;48.126;11.594;2023-03-08T06:37:33;3.20;99.90
7445;DHT22;3764;48.126;11.594;2023-03-08T06:40:01;3.20;99.90
7445;DHT22;3764;48.126;11.594;2023-03-08T06:42:31;3.20;99.90
7445;DHT22;3764;48.126;11.594;2023-03-08T06:44:58;3.20;99.90
7445;DHT22;3764;48.126;11.594;2023-03-08T06:47:28;3.20;99.90
7445;DHT22;3764;48.126;11.594;2023-03-08T06:49:55;3.20;99.90
7445;DHT22;3764;48.126;11.594;2023-03-08T06:52:22;3.20;99.90
7445;DHT22;3764;48.126;11.594;2023-03-08T06:54:49;3.20;99.90
7445;DHT22;3764;48.126;11.594;2023-03-08T06:57:16;3.30;99.90
7445;DHT22;3764;48.126;11.594;2023-03-08T06:59:45;3.30;99.90
7445;DHT22;3764;48.126;11.594;2023-03-08T07:02:12;3.30;99.90
7445;DHT22;3764;48.126;11.594;2023-03-08T07:04:39;3.40;99.90
7445;DHT22;3764;48.126;11.594;2023-03-08T07:07:06;3.30;99.90
7445;DHT22;3764;48.126;11.594;2023-03-08T07:09:33;3.40;99.90
7445;DHT22;3764;48.126;11.594;2023-03-08T07:12:00;3.40;99.90
7445;DHT22;3764;48.126;11.594;2023-03-08T07:14:27;3.40;99.90
7445;DHT22;3764;48.126;11.594;2023-03-08T07:16:56;3.40;99.90
7445;DHT22;3764;48.126;11.594;2023-03-08T07:19:23;3.40;99.90
7445;DHT22;3764;48.126;11.594;2023-03-08T07:21:51;3.40;99.90
7445;DHT22;3764;48.126;11.594;2023-03-08T07:24:18;3.50;99.90
7445;DHT22;3764;48.126;11.594;2023-03-08T07:26:45;3.50;99.90
7445;DHT22;3764;48.126;11.594;2023-03-08T07:29:12;3.50;99.90
7445;DHT22;3764;48.126;11.594;2023-03-08T07:31:39;3.60;99.90
7445;DHT22;3764;48.126;11.594;2023-03-08T07:34:07;3.60;99.90
7445;DHT22;3764;48.126;11.594;2023-03-08T07:36:34;3.60;99.90
7445;DHT22;3764;48.126;11.594;2023-03-08T07:39:02;3.70;99.90
7445;DHT22;3764;48.126;11.594;2023-03-08T07:41:30;3.70;99.90
7445;DHT22;3764;48.126;11.594;2023-03-08T07:43:59;3.70;99.90
7445;DHT22;3764;48.126;11.594;2023-03-08T07:46:27;3.70;99.90
7445;DHT22;3764;48.126;11.594;2023-03-08T07:48:54;3.80;99.90
7445;DHT22;3764;48.126;11.594;2023-03-08T07:51:23;3.90;99.90
7445;DHT22;3764;48.126;11.594;2023-03-08T07:53:51;4.00;99.90
7445;DHT22;3764;48.126;11.594;2023-03-08T07:56:18;4.30;99.90
7445;DHT22;3764;48.126;11.594;2023-03-08T07:58:45;4.30;99.90
7445;DHT22;3764;48.126;11.594;2023-03-08T08:01:13;4.30;99.90
7445;DHT22;3764;48.126;11.594;2023-03-08T08:03:40;4.30;99.90
7445;DHT22;3764;48.126;11.594;2023-03-08T08:06:08;4.30;99.90
7445;DHT22;3764;48.126;11.594;2023-03-08T08:08:37;4.30;99.90
7445;DHT22;3764;48.126;11.594;2023-03-08T08:11:09;4.30;99.90
7445;DHT22;3764;48.126;11.594;2023-03-08T08:13:37;4.40;99.90
7445;DHT22;3764;48.126;11.594;2023-03-08T08:16:04;4.40;99.90
7445;DHT22;3764;48.126;11.594;2023-03-08T08:18:33;4.40;99.90
7445;DHT22;3764;48.126;11.594;2023-03-08T08:21:01;4.40;99.90
7445;DHT22;3764;48.126;11.594;2023-03-08T08:23:28;4.50;99.90
7445;DHT22;3764;48.126;11.594;2023-03-08T08:25:57;4.50;99.90
7445;DHT22;3764;48.126;11.594;2023-03-08T08:28:25;4.50;99.90
7445;DHT22;3764;48.126;11.594;2023-03-08T08:30:56;4.60;99.90
7445;DHT22;3764;48.126;11.594;2023-03-08T08:33:23;4.70;99.90
7445;DHT22;3764;48.126;11.594;2023-03-08T08:35:50;4.80;99.90
7445;DHT22;3764;48.126;11.594;2023-03-08T08:38:17;4.90;99.90
7445;DHT22;3764;48.126;11.594;2023-03-08T08:40:44;5.00;99.90
7445;DHT22;3764;48.126;11.594;2023-03-08T08:43:13;5.10;99.90
7445;DHT22;3764;48.126;11.594;2023-03-08T08:45:44;5.10;99.90
7445;DHT22;3764;48.126;11.594;2023-03-08T08:48:11;5.30;99.90
7445;DHT22;3764;48.126;11.594;2023-03-08T08:50:39;5.30;99.90
7445;DHT22;3764;48.126;11.594;2023-03-08T08:53:06;5.40;99.90
7445;DHT22;3764;48.126;11.594;2023-03-08T08:55:33;5.30;99.90
7445;DHT22;3764;48.126;11.594;2023-03-08T08:58:00;5.40;99.90
7445;DHT22;3764;48.126;11.594;2023-03-08T09:00:30;5.40;99.90
7445;DHT22;3764;48.126;11.594;2023-03-08T09:02:58;5.40;99.90
7445;DHT22;3764;48.126;11.594;2023-03-08T09:05:25;5.50;99.90
7445;DHT22;3764;48.126;11.594;2023-03-08T09:07:52;5.50;99.90
7445;DHT22;3764;48.126;11.594;2023-03-08T09:10:20;5.50;99.90
7445;DHT22;3764;48.126;11.594;2023-03-08T09:12:47;5.60;99.90
7445;DHT22;3764;48.126;11.594;2023-03-08T09:15:15;5.60;99.90
7445;DHT22;3764;48.126;11.594;2023-03-08T09:17:43;5.60;99.90
7445;DHT22;3764;48.126;11.594;2023-03-08T09:20:11;5.70;99.90
7445;DHT22;3764;48.126;11.594;2023-03-08T09:22:39;5.70;99.90
7445;DHT22;3764;48.126;11.594;2023-03-08T09:25:08;5.80;99.90
7445;DHT22;3764;48.126;11.594;2023-03-08T09:27:35;5.90;99.90
7445;DHT22;3764;48.126;11.594;2023-03-08T09:30:03;6.00;99.90
7445;DHT22;3764;48.126;11.594;2023-03-08T09:32:32;6.00;99.90
7445;DHT22;3764;48.126;11.594;2023-03-08T09:35:01;6.00;99.90
7445;DHT22;3764;48.126;11.594;2023-03-08T09:37:29;6.00;99.90
7445;DHT22;3764;48.126;11.594;2023-03-08T09:39:56;6.00;99.90
7445;DHT22;3764;48.126;11.594;2023-03-08T09:42:26;6.00;99.90
7445;DHT22;3764;48.126;11.594;2023-03-08T09:45:05;6.00;99.90
7445;DHT22;3764;48.126;11.594;2023-03-08T09:47:40;6.00;99.90
7445;DHT22;3764;48.126;11.594;2023-03-08T09:50:26;6.00;99.90
7445;DHT22;3764;48.126;11.594;2023-03-08T09:52:59;6.10;99.90
7445;DHT22;3764;48.126;11.594;2023-03-08T09:55:31;6.10;99.90
7445;DHT22;3764;48.126;11.594;2023-03-08T09:58:02;6.10;99.90
7445;DHT22;3764;48.126;11.594;2023-03-08T10:00:32;6.20;99.90
7445;DHT22;3764;48.126;11.594;2023-03-08T10:03:11;6.20;99.90
7445;DHT22;3764;48.126;11.594;2023-03-08T10:05:49;6.20;99.90
7445;DHT22;3764;48.126;11.594;2023-03-08T10:08:22;6.30;99.90
7445;DHT22;3764;48.126;11.594;2023-03-08T10:10:55;6.30;99.90
7445;DHT22;3764;48.126;11.594;2023-03-08T10:13:35;6.30;99.90
7445;DHT22;3764;48.126;11.594;2023-03-08T10:16:14;6.40;99.90
7445;DHT22;3764;48.126;11.594;2023-03-08T10:18:45;6.40;99.90
7445;DHT22;3764;48.126;11.594;2023-03-08T10:21:19;6.40;99.90
7445;DHT22;3764;48.126;11.594;2023-03-08T10:23:53;6.40;99.90
7445;DHT22;3764;48.126;11.594;2023-03-08T10:26:24;6.40;99.90
7445;DHT22;3764;48.126;11.594;2023-03-08T10:28:51;6.40;99.90
7445;DHT22;3764;48.126;11.594;2023-03-08T10:31:23;6.40;99.90
7445;DHT22;3764;48.126;11.594;2023-03-08T10:34:00;6.40;99.90
7445;DHT22;3764;48.126;11.594;2023-03-08T10:36:29;6.40;99.90
7445;DHT22;3764;48.126;11.594;2023-03-08T10:39:00;6.40;99.90
7445;DHT22;3764;48.126;11.594;2023-03-08T10:41:28;6.50;99.90
7445;DHT22;3764;48.126;11.594;2023-03-08T10:43:57;6.60;99.90
7445;DHT22;3764;48.126;11.594;2023-03-08T10:46:26;6.60;99.90
7445;DHT22;3764;48.126;11.594;2023-03-08T10:49:05;6.60;99.90
7445;DHT22;3764;48.126;11.594;2023-03-08T10:51:34;6.60;99.90
7445;DHT22;3764;48.126;11.594;2023-03-08T10:54:04;6.60;99.90
7445;DHT22;3764;48.126;11.594;2023-03-08T10:56:35;6.70;99.90
7445;DHT22;3764;48.126;11.594;2023-03-08T10:59:04;6.70;99.90
7445;DHT22;3764;48.126;11.594;2023-03-08T11:01:33;6.60;99.90
7445;DHT22;3764;48.126;11.594;2023-03-08T11:04:02;6.60;99.90
7445;DHT22;3764;48.126;11.594;2023-03-08T11:06:29;6.60;99.90
7445;DHT22;3764;48.126;11.594;2023-03-08T11:09:01;6.70;99.90
7445;DHT22;3764;48.126;11.594;2023-03-08T11:11:28;6.70;99.90
7445;DHT22;3764;48.126;11.594;2023-03-08T11:14:09;6.80;99.90
7445;DHT22;3764;48.126;11.594;2023-03-08T11:16:48;6.90;99.90
7445;DHT22;3764;48.126;11.594;2023-03-08T11:19:31;7.00;99.90
7445;DHT22;3764;48.126;11.594;2023-03-08T11:22:09;7.00;99.90
7445;DHT22;3764;48.126;11.594;2023-03-08T11:28:04;6.90;99.90
7445;DHT22;3764;48.126;11.594;2023-03-08T11:30:43;6.90;99.90
7445;DHT22;3764;48.126;11.594;2023-03-08T11:33:33;6.80;99.90
7445;DHT22;3764;48.126;11.594;2023-03-08T11:36:05;6.80;99.90
7445;DHT22;3764;48.126;11.594;2023-03-08T11:38:35;6.80;99.90
7445;DHT22;3764;48.126;11.594;2023-03-08T11:41:12;6.80;99.90
7445;DHT22;3764;48.126;11.594;2023-03-08T11:43:52;6.80;99.90
7445;DHT22;3764;48.126;11.594;2023-03-08T11:46:23;6.80;99.90
7445;DHT22;3764;48.126;11.594;2023-03-08T11:49:05;6.80;99.90
7445;DHT22;3764;48.126;11.594;2023-03-08T11:51:42;6.80;99.90
7445;DHT22;3764;48.126;11.594;2023-03-08T11:54:15;6.80;99.90
7445;DHT22;3764;48.126;11.594;2023-03-08T11:56:50;6.80;99.90
7445;DHT22;3764;48.126;11.594;2023-03-08T11:59:23;6.80;99.90
7445;DHT22;3764;48.126;11.594;2023-03-08T12:01:57;6.80;99.90
7445;DHT22;3764;48.126;11.594;2023-03-08T12:04:32;6.90;99.90
7445;DHT22;3764;48.126;11.594;2023-03-08T12:07:05;6.90;99.90
7445;DHT22;3764;48.126;11.594;2023-03-08T12:09:36;7.00;99.90
7445;DHT22;3764;48.126;11.594;2023-03-08T12:12:11;7.00;99.90
7445;DHT22;3764;48.126;11.594;2023-03-08T12:14:45;7.00;99.90
7445;DHT22;3764;48.126;11.594;2023-03-08T12:17:18;7.10;99.90
7445;DHT22;3764;48.126;11.594;2023-03-08T12:19:47;7.10;99.90
7445;DHT22;3764;48.126;11.594;2023-03-08T12:22:25;7.20;99.90
7445;DHT22;3764;48.126;11.594;2023-03-08T12:25:00;7.30;99.90
7445;DHT22;3764;48.126;11.594;2023-03-08T12:27:37;7.40;99.90
7445;DHT22;3764;48.126;11.594;2023-03-08T12:30:15;7.40;99.90
7445;DHT22;3764;48.126;11.594;2023-03-08T12:32:45;7.50;99.90
7445;DHT22;3764;48.126;11.594;2023-03-08T12:35:28;7.60;99.90
7445;DHT22;3764;48.126;11.594;2023-03-08T12:37:59;7.70;99.90
7445;DHT22;3764;48.126;11.594;2023-03-08T12:40:33;7.80;99.90
7445;DHT22;3764;48.126;11.594;2023-03-08T12:43:11;7.90;99.90
7445;DHT22;3764;48.126;11.594;2023-03-08T12:45:40;8.00;99.90
7445;DHT22;3764;48.126;11.594;2023-03-08T12:48:17;8.10;99.90
7445;DHT22;3764;48.126;11.594;2023-03-08T12:50:57;8.20;99.90
7445;DHT22;3764;48.126;11.594;2023-03-08T12:53:30;8.30;99.90
7445;DHT22;3764;48.126;11.594;2023-03-08T12:56:04;8.50;99.90
7445;DHT22;3764;48.126;11.594;2023-03-08T12:58:35;8.50;99.90
7445;DHT22;3764;48.126;11.594;2023-03-08T13:01:05;8.70;99.90
7445;DHT22;3764;48.126;11.594;2023-03-08T13:03:37;8.70;99.90
7445;DHT22;3764;48.126;11.594;2023-03-08T13:09:17;8.90;99.90
7445;DHT22;3764;48.126;11.594;2023-03-08T13:11:50;8.90;99.90
7445;DHT22;3764;48.126;11.594;2023-03-08T13:14:26;9.00;99.90
7445;DHT22;3764;48.126;11.594;2023-03-08T13:16:54;9.10;99.90
7445;DHT22;3764;48.126;11.594;2023-03-08T13:19:25;9.10;99.90
7445;DHT22;3764;48.126;11.594;2023-03-08T13:22:02;9.20;99.90
7445;DHT22;3764;48.126;11.594;2023-03-08T13:24:37;9.30;99.90
7445;DHT22;3764;48.126;11.594;2023-03-08T13:27:18;9.40;99.90
7445;DHT22;3764;48.126;11.594;2023-03-08T13:29:48;9.60;99.90
7445;DHT22;3764;48.126;11.594;2023-03-08T13:32:18;9.70;99.90
7445;DHT22;3764;48.126;11.594;2023-03-08T13:34:57;10.00;99.90
7445;DHT22;3764;48.126;11.594;2023-03-08T13:37:26;10.20;99.90
7445;DHT22;3764;48.126;11.594;2023-03-08T13:39:55;10.60;99.90
7445;DHT22;3764;48.126;11.594;2023-03-08T13:42:24;10.80;99.90
7445;DHT22;3764;48.126;11.594;2023-03-08T13:45:08;10.90;99.90
7445;DHT22;3764;48.126;11.594;2023-03-08T13:47:37;11.10;99.90
7445;DHT22;3764;48.126;11.594;2023-03-08T13:50:06;11.20;99.90
7445;DHT22;3764;48.126;11.594;2023-03-08T13:52:36;11.20;99.90
7445;DHT22;3764;48.126;11.594;2023-03-08T13:55:06;11.10;99.90
7445;DHT22;3764;48.126;11.594;2023-03-08T13:57:36;11.10;99.90
7445;DHT22;3764;48.126;11.594;2023-03-08T14:00:23;11.10;99.90
7445;DHT22;3764;48.126;11.594;2023-03-08T14:02:50;11.20;99.90
7445;DHT22;3764;48.126;11.594;2023-03-08T14:05:20;11.20;99.90
7445;DHT22;3764;48.126;11.594;2023-03-08T14:07:59;11.30;99.90
7445;DHT22;3764;48.126;11.594;2023-03-08T14:10:37;11.20;99.90
7445;DHT22;3764;48.126;11.594;2023-03-08T14:13:12;11.30;99.90
7445;DHT22;3764;48.126;11.594;2023-03-08T14:15:47;11.20;99.90
7445;DHT22;3764;48.126;11.594;2023-03-08T14:18:20;11.20;99.90
7445;DHT22;3764;48.126;11.594;2023-03-08T14:21:02;11.10;99.90
7445;DHT22;3764;48.126;11.594;2023-03-08T14:23:29;11.00;99.90
7445;DHT22;3764;48.126;11.594;2023-03-08T14:25:58;11.00;99.90
7445;DHT22;3764;48.126;11.594;2023-03-08T14:28:40;11.00;99.90
7445;DHT22;3764;48.126;11.594;2023-03-08T14:31:26;11.10;99.90
7445;DHT22;3764;48.126;11.594;2023-03-08T14:33:56;11.00;99.90
7445;DHT22;3764;48.126;11.594;2023-03-08T14:36:24;11.10;99.90
7445;DHT22;3764;48.126;11.594;2023-03-08T14:38:51;11.10;99.90
7445;DHT22;3764;48.126;11.594;2023-03-08T14:41:29;11.20;99.90
7445;DHT22;3764;48.126;11.594;2023-03-08T14:43:56;11.20;99.90
7445;DHT22;3764;48.126;11.594;2023-03-08T14:46:25;11.20;99.90
7445;DHT22;3764;48.126;11.594;2023-03-08T14:48:59;11.30;99.90
7445;DHT22;3764;48.126;11.594;2023-03-08T14:51:29;11.30;99.90
7445;DHT22;3764;48.126;11.594;2023-03-08T14:53:58;11.50;99.90
7445;DHT22;3764;48.126;11.594;2023-03-08T14:56:27;11.50;99.90
7445;DHT22;3764;48.126;11.594;2023-03-08T14:58:59;11.50;99.90
7445;DHT22;3764;48.126;11.594;2023-03-08T15:01:31;11.60;99.90
7445;DHT22;3764;48.126;11.594;2023-03-08T15:03:58;11.60;99.90
7445;DHT22;3764;48.126;11.594;2023-03-08T15:06:28;11.60;99.90
7445;DHT22;3764;48.126;11.594;2023-03-08T15:08:57;11.60;99.90
7445;DHT22;3764;48.126;11.594;2023-03-08T15:11:25;11.70;99.90
7445;DHT22;3764;48.126;11.594;2023-03-08T15:13:56;11.70;99.90
7445;DHT22;3764;48.126;11.594;2023-03-08T15:16:23;11.70;99.90
7445;DHT22;3764;48.126;11.594;2023-03-08T15:18:51;11.80;99.90
7445;DHT22;3764;48.126;11.594;2023-03-08T15:21:22;11.80;99.90
7445;DHT22;3764;48.126;11.594;2023-03-08T15:23:50;11.80;99.90
7445;DHT22;3764;48.126;11.594;2023-03-08T15:26:21;11.80;99.90
7445;DHT22;3764;48.126;11.594;2023-03-08T15:28:48;11.80;99.90
7445;DHT22;3764;48.126;11.594;2023-03-08T15:31:16;11.80;99.90
7445;DHT22;3764;48.126;11.594;2023-03-08T15:33:43;11.80;99.90
7445;DHT22;3764;48.126;11.594;2023-03-08T15:36:12;11.80;99.90
7445;DHT22;3764;48.126;11.594;2023-03-08T15:38:40;11.80;99.90
7445;DHT22;3764;48.126;11.594;2023-03-08T15:41:10;11.80;99.90
7445;DHT22;3764;48.126;11.594;2023-03-08T15:43:37;11.90;99.90
7445;DHT22;3764;48.126;11.594;2023-03-08T15:46:04;11.80;99.90
7445;DHT22;3764;48.126;11.594;2023-03-08T15:48:31;11.80;99.90
7445;DHT22;3764;48.126;11.594;2023-03-08T15:50:58;11.80;99.90
7445;DHT22;3764;48.126;11.594;2023-03-08T15:53:27;11.80;99.90
7445;DHT22;3764;48.126;11.594;2023-03-08T15:55:55;11.90;99.90
7445;DHT22;3764;48.126;11.594;2023-03-08T15:58:22;11.90;99.90
7445;DHT22;3764;48.126;11.594;2023-03-08T16:00:49;11.90;99.90
7445;DHT22;3764;48.126;11.594;2023-03-08T16:03:17;11.90;99.90
7445;DHT22;3764;48.126;11.594;2023-03-08T16:05:50;11.80;99.90
7445;DHT22;3764;48.126;11.594;2023-03-08T16:08:17;11.80;99.90
7445;DHT22;3764;48.126;11.594;2023-03-08T16:10:47;11.80;99.90
7445;DHT22;3764;48.126;11.594;2023-03-08T16:13:14;11.80;99.90
7445;DHT22;3764;48.126;11.594;2023-03-08T16:15:43;11.80;99.90
7445;DHT22;3764;48.126;11.594;2023-03-08T16:18:10;11.80;99.90
7445;DHT22;3764;48.126;11.594;2023-03-08T16:20:38;11.80;99.90